Time;durP1;ratioP1;P1;durP2;ratioP2;P2;SDS_P1;SDS_P2;PMS_P1;PMS_P2;Temp;Humidity;BMP_temperature;BMP_pressure;BME280_temperature;BME280_humidity;BME280_pressure;Samples;Min_cycle;Max_cycle;Signal;HPM_P1;HPM_P2
2021/12/08 00:00:16;;;;;;;21.00;10.13;;;1.10;99.90;;;;;;5010983;28;20022;-63
2021/12/08 00:02:43;;;;;;;19.23;10.48;;;1.20;99.90;;;;;;5011178;28;20499;-63
2021/12/08 00:05:11;;;;;;;18.58;10.55;;;1.60;99.90;;;;;;5008307;28;20042;-63
2021/12/08 00:07:38;;;;;;;16.13;9.77;;;0.80;99.90;;;;;;5011021;28;20100;-62
2021/12/08 00:10:29;;;;;;;17.77;10.93;;;0.00;99.90;;;;;;5009106;28;20053;-60
2021/12/08 00:13:05;;;;;;;18.33;9.98;;;2.00;99.90;;;;;;4991133;28;20201;-62
2021/12/08 00:15:37;;;;;;;18.30;9.73;;;1.60;99.90;;;;;;4994886;28;20022;-63
2021/12/08 00:18:06;;;;;;;16.95;9.85;;;0.90;99.90;;;;;;5006777;28;20037;-62
2021/12/08 00:20:34;;;;;;;19.02;10.55;;;1.00;99.90;;;;;;5011059;28;20032;-61
2021/12/08 00:23:01;;;;;;;16.55;8.98;;;1.20;99.90;;;;;;5010571;28;20184;-64
2021/12/08 00:25:27;;;;;;;13.82;8.40;;;1.60;99.90;;;;;;5008758;28;20101;-63
2021/12/08 00:27:54;;;;;;;17.88;9.73;;;1.20;99.90;;;;;;5009856;28;20034;-63
2021/12/08 00:30:20;;;;;;;22.23;9.77;;;1.10;99.90;;;;;;5008028;28;20030;-60
2021/12/08 00:32:47;;;;;;;19.13;11.13;;;1.00;99.90;;;;;;5010912;28;20025;-61
2021/12/08 00:35:13;;;;;;;20.98;10.60;;;2.20;99.90;;;;;;5009930;28;20035;-63
2021/12/08 00:37:40;;;;;;;19.42;10.10;;;1.20;99.90;;;;;;5009711;28;20498;-62
2021/12/08 00:40:08;;;;;;;15.50;8.90;;;1.30;99.90;;;;;;5010623;28;20026;-60
2021/12/08 00:42:34;;;;;;;13.52;9.10;;;2.00;99.90;;;;;;5010748;28;20033;-61
2021/12/08 00:44:59;;;;;;;16.70;9.40;;;1.30;99.90;;;;;;5008469;28;20080;-61
2021/12/08 00:47:27;;;;;;;18.35;9.57;;;1.70;99.90;;;;;;5010921;28;20480;-62
2021/12/08 00:49:52;;;;;;;18.55;10.05;;;1.50;99.90;;;;;;5010491;28;20030;-61
2021/12/08 00:52:18;;;;;;;14.05;8.95;;;2.10;99.90;;;;;;5010702;28;20060;-62
2021/12/08 00:54:44;;;;;;;16.50;9.60;;;2.10;99.90;;;;;;5010031;28;20496;-63
2021/12/08 00:57:10;;;;;;;15.15;9.55;;;2.30;99.90;;;;;;5006432;28;20030;-61
2021/12/08 00:59:37;;;;;;;17.02;9.20;;;1.90;99.90;;;;;;5010536;28;20022;-62
2021/12/08 01:02:04;;;;;;;15.00;9.32;;;1.60;99.90;;;;;;5009701;28;20022;-61
2021/12/08 01:04:31;;;;;;;17.08;10.35;;;2.40;99.90;;;;;;5012636;28;20118;-62
2021/12/08 01:06:57;;;;;;;16.83;9.38;;;1.80;99.90;;;;;;5014036;28;20116;-61
2021/12/08 01:09:22;;;;;;;14.57;9.38;;;1.80;99.90;;;;;;5012968;28;20026;-62
2021/12/08 01:11:48;;;;;;;15.55;8.95;;;2.20;99.90;;;;;;5014170;28;20125;-62
2021/12/08 01:14:15;;;;;;;14.75;9.18;;;2.00;99.90;;;;;;5013959;28;20034;-62
2021/12/08 01:16:41;;;;;;;16.08;9.40;;;2.00;99.90;;;;;;5012486;28;20022;-62
2021/12/08 01:19:07;;;;;;;17.33;10.20;;;1.90;99.90;;;;;;5013722;28;20125;-62
2021/12/08 01:21:33;;;;;;;15.68;8.55;;;1.50;99.90;;;;;;5014016;28;20531;-63
2021/12/08 01:23:59;;;;;;;16.67;10.13;;;1.70;99.90;;;;;;5008992;28;20030;-61
2021/12/08 01:26:26;;;;;;;17.58;9.77;;;1.80;99.90;;;;;;5013335;28;20038;-60
2021/12/08 01:28:55;;;;;;;20.70;10.30;;;2.50;99.90;;;;;;5013391;28;20034;-64
2021/12/08 01:31:22;;;;;;;16.30;9.43;;;2.10;99.90;;;;;;5012283;28;20579;-63
2021/12/08 01:33:48;;;;;;;15.70;10.10;;;1.40;99.90;;;;;;5013482;28;20038;-61
2021/12/08 01:36:14;;;;;;;15.98;10.35;;;2.70;99.90;;;;;;5012747;28;20026;-63
2021/12/08 01:38:40;;;;;;;17.98;10.07;;;2.60;99.90;;;;;;5042820;23;20503;-69
2021/12/08 01:41:06;;;;;;;17.77;10.52;;;;;;;;;;5023433;28;20025;-67
2021/12/08 01:46:22;;;;;;;15.10;9.90;;;1.30;99.90;;;;;;5013291;28;20084;-68
2021/12/08 01:48:48;;;;;;;18.73;10.40;;;2.30;99.90;;;;;;5012462;28;20034;-67
2021/12/08 01:51:17;;;;;;;21.77;11.70;;;1.50;99.90;;;;;;5013868;28;20036;-67
2021/12/08 01:53:50;;;;;;;15.63;11.32;;;1.60;99.90;;;;;;5013441;28;20026;-66
2021/12/08 01:56:18;;;;;;;19.25;12.48;;;1.30;99.90;;;;;;5009041;28;20030;-68
2021/12/08 01:58:44;;;;;;;18.15;10.43;;;2.20;99.90;;;;;;5013108;28;20575;-66
2021/12/08 02:01:13;;;;;;;15.10;10.60;;;1.80;99.90;;;;;;5011947;28;20030;-67
2021/12/08 02:03:40;;;;;;;17.05;11.27;;;2.20;99.90;;;;;;5020678;28;20436;-67
2021/12/08 02:06:07;;;;;;;19.80;10.15;;;;;;;;;;5023501;28;20026;-67
2021/12/08 02:08:34;;;;;;;16.48;10.63;;;;;;;;;;5012385;28;20030;-67
2021/12/08 02:11:02;;;;;;;18.02;10.95;;;2.00;99.90;;;;;;5018000;28;20029;-68
2021/12/08 02:13:31;;;;;;;17.58;10.57;;;1.40;99.90;;;;;;5012691;28;20112;-67
2021/12/08 02:15:59;;;;;;;16.13;9.68;;;2.00;99.90;;;;;;5012860;28;20029;-68
2021/12/08 02:18:25;;;;;;;17.20;10.68;;;2.30;99.90;;;;;;5012860;28;20250;-67
2021/12/08 02:20:51;;;;;;;14.45;10.73;;;1.90;99.90;;;;;;5008542;28;20634;-67
2021/12/08 02:23:19;;;;;;;15.23;10.25;;;2.40;99.90;;;;;;5012418;28;20026;-68
2021/12/08 02:25:46;;;;;;;14.88;10.02;;;2.10;99.90;;;;;;5010025;28;20485;-67
2021/12/08 02:28:12;;;;;;;15.70;11.13;;;2.70;99.90;;;;;;5012438;28;20026;-67
2021/12/08 02:49:31;;;;;;;14.98;11.07;;;1.20;99.90;;;;;;5010858;28;20509;-67
2021/12/08 02:51:58;;;;;;;15.98;11.13;;;1.80;99.90;;;;;;5007942;28;20041;-67
2021/12/08 02:54:24;;;;;;;15.15;10.68;;;2.20;99.90;;;;;;5011188;28;20156;-68
2021/12/08 02:56:54;;;;;;;18.52;10.82;;;2.50;99.90;;;;;;5010799;28;20121;-66
2021/12/08 02:59:19;;;;;;;17.75;10.43;;;1.90;99.90;;;;;;5012580;28;20018;-68
2021/12/08 03:01:45;;;;;;;15.35;10.95;;;1.30;99.90;;;;;;5012617;28;20113;-69
2021/12/08 03:04:11;;;;;;;19.17;11.30;;;2.60;99.90;;;;;;5011256;28;20385;-67
2021/12/08 03:06:38;;;;;;;19.23;12.18;;;1.60;99.90;;;;;;5011966;28;20032;-67
2021/12/08 03:09:06;;;;;;;16.35;11.13;;;2.10;99.90;;;;;;5012168;28;20431;-68
2021/12/08 03:11:31;;;;;;;17.52;11.35;;;2.30;99.90;;;;;;5011736;28;20403;-68
2021/12/08 03:14:09;;;;;;;17.33;10.95;;;;;;;;;;5012527;28;20480;-69
2021/12/08 03:16:41;;;;;;;17.17;12.00;;;1.90;99.90;;;;;;5011230;28;20022;-66
2021/12/08 03:19:07;;;;;;;20.88;11.75;;;1.90;99.90;;;;;;5012459;28;20018;-68
2021/12/08 03:21:34;;;;;;;21.08;12.27;;;;;;;;;;5012541;28;20030;-68
2021/12/08 03:26:55;;;;;;;20.00;11.95;;;2.60;99.90;;;;;;5011363;28;20081;-69
2021/12/08 03:29:27;;;;;;;18.33;12.23;;;;;;;;;;5007799;28;20030;-68
2021/12/08 03:32:03;;;;;;;19.85;12.88;;;2.10;99.90;;;;;;5012336;28;20029;-67
2021/12/08 03:34:30;;;;;;;19.92;11.55;;;;;;;;;;5010990;28;20030;-69
2021/12/08 03:36:56;;;;;;;19.52;12.15;;;1.60;99.90;;;;;;5012141;28;20034;-68
2021/12/08 03:39:22;;;;;;;19.25;11.80;;;2.50;99.90;;;;;;5011478;28;20080;-68
2021/12/08 03:41:48;;;;;;;16.75;11.10;;;1.90;99.90;;;;;;5013630;28;20057;-67
2021/12/08 03:44:14;;;;;;;18.42;12.35;;;2.10;99.90;;;;;;5026489;28;20537;-66
2021/12/08 03:46:42;;;;;;;18.38;11.95;;;2.40;99.90;;;;;;5012090;28;20064;-67
2021/12/08 03:49:11;;;;;;;19.50;11.60;;;1.00;99.90;;;;;;5011228;28;20038;-68
2021/12/08 03:51:39;;;;;;;17.67;12.85;;;3.00;99.90;;;;;;5012113;28;20448;-68
2021/12/08 03:54:05;;;;;;;17.50;11.48;;;2.30;99.90;;;;;;5011159;28;20025;-68
2021/12/08 03:56:31;;;;;;;16.08;11.90;;;1.70;99.90;;;;;;5010862;28;20055;-68
2021/12/08 03:58:57;;;;;;;19.05;11.40;;;1.80;99.90;;;;;;5012207;28;20013;-67
2021/12/08 04:01:23;;;;;;;17.58;11.57;;;2.40;99.90;;;;;;5011130;28;20677;-67
2021/12/08 04:03:50;;;;;;;18.83;12.23;;;2.20;99.90;;;;;;5012150;28;20040;-67
2021/12/08 04:06:31;;;;;;;14.25;10.57;;;2.80;99.90;;;;;;5007622;28;20523;-70
2021/12/08 04:08:58;;;;;;;18.45;11.65;;;2.30;99.90;;;;;;5011829;28;20034;-67
2021/12/08 04:11:25;;;;;;;15.73;10.80;;;3.20;99.90;;;;;;5012118;28;20511;-67
2021/12/08 04:13:51;;;;;;;15.13;11.43;;;;;;;;;;5011133;28;20048;-67
2021/12/08 04:16:22;;;;;;;17.83;11.90;;;1.90;99.90;;;;;;5011229;28;20018;-66
2021/12/08 04:18:48;;;;;;;17.25;11.48;;;1.90;99.90;;;;;;5007685;28;20025;-67
2021/12/08 04:21:15;;;;;;;15.68;11.48;;;2.10;99.90;;;;;;5011620;28;20049;-67
2021/12/08 04:23:43;;;;;;;16.98;12.43;;;2.50;99.90;;;;;;5011609;28;20022;-67
2021/12/08 04:26:14;;;;;;;19.98;12.00;;;2.60;99.90;;;;;;5010278;28;20034;-67
2021/12/08 04:28:40;;;;;;;27.48;13.45;;;2.10;99.90;;;;;;5010976;28;20029;-66
2021/12/08 04:31:18;;;;;;;19.35;11.70;;;2.20;99.90;;;;;;5021686;28;20483;-67
2021/12/08 04:33:47;;;;;;;16.38;11.57;;;1.90;99.90;;;;;;5031207;28;20033;-67
2021/12/08 04:36:15;;;;;;;21.83;12.05;;;2.10;99.90;;;;;;5030587;28;20013;-67
2021/12/08 04:38:48;;;;;;;17.98;11.80;;;2.00;99.90;;;;;;5013768;28;20060;-68
2021/12/08 04:41:19;;;;;;;20.60;12.93;;;2.10;99.90;;;;;;5015327;28;20049;-68
2021/12/08 05:08:19;;;;;;;13.43;10.85;;;2.80;99.90;;;;;;5029860;28;20107;-68
2021/12/08 05:10:49;;;;;;;14.82;10.32;;;3.00;99.90;;;;;;5021885;28;20034;-67
2021/12/08 05:13:17;;;;;;;21.33;12.77;;;2.80;99.90;;;;;;5014583;28;20022;-67
2021/12/08 05:15:54;;;;;;;19.65;11.95;;;;;;;;;;5013087;28;20038;-68
2021/12/08 05:18:25;;;;;;;18.95;12.90;;;2.40;99.90;;;;;;5013499;28;20038;-67
2021/12/08 05:21:04;;;;;;;19.73;11.73;;;2.20;99.90;;;;;;5013814;28;20040;-66
2021/12/08 05:23:39;;;;;;;18.50;12.23;;;2.40;99.90;;;;;;5011160;28;20122;-66
2021/12/08 05:26:14;;;;;;;16.88;12.10;;;2.60;99.90;;;;;;5025612;28;20049;-67
2021/12/08 05:28:42;;;;;;;18.15;11.93;;;;;;;;;;5012625;28;20033;-69
2021/12/08 05:31:15;;;;;;;17.30;11.52;;;2.50;99.90;;;;;;5015716;28;20033;-72
2021/12/08 05:33:43;;;;;;;14.98;10.30;;;2.40;99.90;;;;;;5009618;28;20031;-71
2021/12/08 05:36:10;;;;;;;21.17;13.52;;;2.30;99.90;;;;;;5020391;28;20113;-70
2021/12/08 05:38:37;;;;;;;23.95;13.98;;;2.00;99.90;;;;;;5018854;28;20547;-72
2021/12/08 05:41:11;;;;;;;21.25;13.90;;;2.30;99.90;;;;;;5006717;28;20058;-71
2021/12/08 05:43:37;;;;;;;16.90;11.52;;;2.70;99.90;;;;;;5018685;28;20062;-71
2021/12/08 05:46:04;;;;;;;17.48;12.30;;;2.10;99.90;;;;;;5027958;28;20030;-72
2021/12/08 05:48:32;;;;;;;14.90;11.38;;;2.50;99.90;;;;;;5016107;28;20030;-70
2021/12/08 05:51:04;;;;;;;17.48;11.55;;;2.60;99.90;;;;;;5017562;28;20037;-70
2021/12/08 05:53:30;;;;;;;14.48;8.75;;;3.00;99.90;;;;;;5013257;28;20041;-70
2021/12/08 05:55:56;;;;;;;19.83;11.43;;;2.50;99.90;;;;;;5013466;28;20033;-69
2021/12/08 05:58:25;;;;;;;17.20;10.77;;;2.40;99.90;;;;;;5010009;28;20506;-70
2021/12/08 06:00:56;;;;;;;15.30;10.98;;;3.20;99.90;;;;;;5013820;28;20030;-71
2021/12/08 06:03:22;;;;;;;14.32;11.35;;;3.00;99.90;;;;;;5014129;28;20064;-70
2021/12/08 06:05:51;;;;;;;14.23;10.55;;;2.20;99.90;;;;;;5012599;28;20026;-70
2021/12/08 06:08:17;;;;;;;16.25;11.25;;;2.10;99.90;;;;;;5013285;28;20045;-71
2021/12/08 06:10:46;;;;;;;15.90;10.80;;;2.50;99.90;;;;;;5009038;28;20056;-71
2021/12/08 06:13:15;;;;;;;18.58;11.35;;;2.50;99.90;;;;;;5013878;28;20395;-71
2021/12/08 06:15:45;;;;;;;16.52;11.82;;;2.70;99.90;;;;;;5013004;28;20022;-71
2021/12/08 06:18:11;;;;;;;20.40;12.05;;;2.30;99.90;;;;;;5013046;28;20018;-70
2021/12/08 06:20:37;;;;;;;18.17;11.43;;;2.30;99.90;;;;;;5013871;28;20088;-71
2021/12/08 06:23:06;;;;;;;15.95;11.85;;;2.10;99.90;;;;;;5010669;28;20037;-70
2021/12/08 06:25:32;;;;;;;20.27;14.38;;;2.70;99.90;;;;;;5011873;28;20022;-70
2021/12/08 06:27:58;;;;;;;19.52;14.18;;;2.40;99.90;;;;;;5012691;28;20109;-70
2021/12/08 06:30:29;;;;;;;20.60;14.02;;;2.60;99.90;;;;;;5011912;28;20109;-69
2021/12/08 06:32:55;;;;;;;16.98;12.65;;;2.80;99.90;;;;;;5013419;28;20030;-69
2021/12/08 06:35:40;;;;;;;25.20;13.18;;;2.50;99.90;;;;;;5008635;28;20030;-70
2021/12/08 06:38:08;;;;;;;18.20;13.27;;;2.70;99.90;;;;;;5012488;28;20385;-70
2021/12/08 06:40:36;;;;;;;17.33;11.85;;;3.20;99.90;;;;;;5012882;28;20117;-69
2021/12/08 06:43:05;;;;;;;18.02;13.82;;;2.70;99.90;;;;;;5012182;28;20056;-72
2021/12/08 06:45:36;;;;;;;18.60;13.35;;;2.90;99.90;;;;;;5012342;28;20079;-74
2021/12/08 06:48:07;;;;;;;18.10;13.60;;;2.70;99.90;;;;;;5010792;28;20034;-74
2021/12/08 06:50:37;;;;;;;17.00;13.60;;;3.30;99.90;;;;;;5011920;28;20032;-73
2021/12/08 06:53:04;;;;;;;22.13;14.30;;;3.20;99.90;;;;;;5013182;28;20029;-74
2021/12/08 06:55:40;;;;;;;18.48;12.73;;;2.60;99.90;;;;;;5011864;28;20033;-74
2021/12/08 06:58:14;;;;;;;18.85;12.15;;;3.00;99.90;;;;;;5013368;28;20018;-76
2021/12/08 07:01:18;;;;;;;17.38;12.65;;;3.00;99.90;;;;;;5015306;28;20033;-73
2021/12/08 07:04:08;;;;;;;17.42;13.20;;;2.50;99.90;;;;;;5012180;28;20061;-73
2021/12/08 07:09:16;;;;;;;18.40;13.02;;;2.90;99.90;;;;;;5009825;28;20480;-70
2021/12/08 07:11:42;;;;;;;18.73;14.20;;;3.00;99.90;;;;;;4996801;28;20030;-71
2021/12/08 07:14:09;;;;;;;16.42;11.85;;;3.00;99.90;;;;;;5000476;28;20040;-71
2021/12/08 07:16:39;;;;;;;15.50;12.15;;;3.10;99.90;;;;;;5014217;28;20085;-70
2021/12/08 07:19:26;;;;;;;16.45;12.05;;;3.20;99.90;;;;;;5002396;28;20029;-70
2021/12/08 07:21:54;;;;;;;16.25;12.68;;;3.10;99.90;;;;;;5007597;28;20026;-70
2021/12/08 07:24:27;;;;;;;15.98;11.45;;;3.00;99.90;;;;;;5011667;28;20068;-70
2021/12/08 07:27:01;;;;;;;17.20;12.02;;;2.70;99.90;;;;;;5009525;28;20504;-69
2021/12/08 07:29:30;;;;;;;17.15;12.85;;;3.00;99.90;;;;;;4992896;28;20102;-70
2021/12/08 07:32:01;;;;;;;16.55;11.63;;;3.20;99.90;;;;;;4992514;28;20029;-69
2021/12/08 07:34:29;;;;;;;16.88;12.45;;;3.20;99.90;;;;;;4989714;28;20026;-72
2021/12/08 07:36:59;;;;;;;13.50;11.85;;;3.10;99.90;;;;;;4992331;28;20026;-71
2021/12/08 07:39:31;;;;;;;16.95;12.13;;;3.00;99.90;;;;;;5009853;28;20040;-71
2021/12/08 07:42:02;;;;;;;15.70;12.13;;;2.70;99.90;;;;;;5037081;23;20042;-67
2021/12/08 07:44:29;;;;;;;27.88;20.08;;;2.90;99.90;;;;;;5003794;28;20022;-68
2021/12/08 07:47:00;;;;;;;21.25;14.82;;;2.90;99.90;;;;;;5000093;28;20022;-67
2021/12/08 07:49:31;;;;;;;21.50;13.82;;;3.10;99.90;;;;;;5017229;28;20598;-67
2021/12/08 07:52:13;;;;;;;24.40;16.35;;;2.60;99.90;;;;;;4996816;28;20065;-68
2021/12/08 07:54:41;;;;;;;21.33;14.48;;;3.00;99.90;;;;;;5003845;28;20399;-67
2021/12/08 07:57:11;;;;;;;21.48;14.23;;;2.90;99.90;;;;;;5011122;28;20022;-64
2021/12/08 07:59:39;;;;;;;17.27;12.95;;;3.60;99.90;;;;;;5011831;28;20018;-64
2021/12/08 08:02:07;;;;;;;20.58;13.73;;;2.90;99.90;;;;;;5007411;28;20514;-64
2021/12/08 08:04:36;;;;;;;17.73;12.68;;;2.50;99.90;;;;;;5011464;28;20029;-67
2021/12/08 08:07:05;;;;;;;19.67;13.45;;;2.90;99.90;;;;;;5010471;28;20018;-64
2021/12/08 08:09:36;;;;;;;18.17;12.85;;;3.00;99.90;;;;;;5011594;28;20101;-64
2021/12/08 08:12:05;;;;;;;22.70;13.52;;;3.00;99.90;;;;;;5019457;28;20032;-64
2021/12/08 08:14:38;;;;;;;24.02;14.63;;;2.90;99.90;;;;;;5021211;28;20029;-65
2021/12/08 08:17:15;;;;;;;21.67;13.48;;;3.30;99.90;;;;;;5016072;28;20018;-64
2021/12/08 08:19:45;;;;;;;24.00;15.98;;;3.20;99.90;;;;;;5014432;28;20048;-62
2021/12/08 08:22:22;;;;;;;26.15;15.50;;;3.40;99.90;;;;;;4996230;28;20122;-60
2021/12/08 08:24:49;;;;;;;24.30;14.20;;;3.20;99.90;;;;;;4996099;28;20036;-65
2021/12/08 08:27:15;;;;;;;22.20;15.63;;;3.60;99.90;;;;;;5003327;28;20022;-63
2021/12/08 08:29:41;;;;;;;20.95;13.98;;;3.20;99.90;;;;;;5017076;28;20033;-63
2021/12/08 08:32:20;;;;;;;20.98;15.93;;;3.60;99.90;;;;;;5016704;28;20026;-63
2021/12/08 08:34:58;;;;;;;19.17;14.23;;;3.20;99.90;;;;;;4996270;28;20588;-65
2021/12/08 08:37:24;;;;;;;18.92;14.10;;;3.30;99.90;;;;;;4996564;28;20027;-63
2021/12/08 08:39:59;;;;;;;18.30;12.55;;;3.40;99.90;;;;;;5000310;28;20629;-65
2021/12/08 08:42:32;;;;;;;16.27;12.65;;;3.20;99.90;;;;;;5027642;28;20044;-63
2021/12/08 08:45:14;;;;;;;21.45;14.35;;;3.70;99.90;;;;;;5034695;28;20028;-66
2021/12/08 08:47:45;;;;;;;20.02;12.55;;;3.50;99.90;;;;;;5015563;28;20128;-64
2021/12/08 08:50:17;;;;;;;26.77;14.73;;;3.50;99.90;;;;;;5015201;28;20032;-64
2021/12/08 08:52:47;;;;;;;26.92;16.67;;;4.10;99.90;;;;;;5011357;28;20498;-62
2021/12/08 08:55:24;;;;;;;26.23;15.43;;;3.50;99.90;;;;;;5014921;28;20022;-64
2021/12/08 08:57:50;;;;;;;22.10;14.50;;;5.30;99.90;;;;;;5015285;28;20033;-63
2021/12/08 09:00:16;;;;;;;19.60;13.50;;;3.30;99.90;;;;;;5015014;28;20085;-64
2021/12/08 09:02:42;;;;;;;21.48;13.38;;;3.10;99.90;;;;;;5015212;28;20034;-62
2021/12/08 09:05:23;;;;;;;26.30;15.57;;;3.00;99.90;;;;;;5011325;28;20030;-63
2021/12/08 09:07:52;;;;;;;24.45;14.75;;;3.00;99.90;;;;;;4995529;28;20030;-63
2021/12/08 09:10:31;;;;;;;22.23;12.50;;;3.10;99.90;;;;;;4995270;28;20022;-63
2021/12/08 09:13:02;;;;;;;16.88;12.55;;;3.00;99.90;;;;;;5012530;28;20030;-63
2021/12/08 09:15:30;;;;;;;19.67;12.83;;;3.10;99.90;;;;;;5014307;28;20076;-63
2021/12/08 09:18:11;;;;;;;17.23;12.40;;;3.70;99.90;;;;;;5013736;28;20104;-64
2021/12/08 09:20:45;;;;;;;20.60;12.85;;;3.20;99.90;;;;;;4995078;28;20160;-64
2021/12/08 09:23:34;;;;;;;16.40;13.52;;;3.60;99.90;;;;;;4994583;28;20084;-63
2021/12/08 09:26:07;;;;;;;17.17;12.70;;;3.00;99.90;;;;;;5007264;28;20029;-64
2021/12/08 09:28:51;;;;;;;17.15;12.82;;;3.60;99.90;;;;;;5014365;28;20034;-64
2021/12/08 09:31:22;;;;;;;22.35;13.10;;;2.80;99.90;;;;;;5010847;28;20080;-64
2021/12/08 09:33:54;;;;;;;21.00;13.82;;;3.30;99.90;;;;;;4995003;28;20428;-64
2021/12/08 09:36:52;;;;;;;17.02;12.77;;;3.40;99.90;;;;;;4992983;28;20050;-64
2021/12/08 09:39:46;;;;;;;18.67;13.57;;;3.50;99.90;;;;;;5004658;28;20034;-65
2021/12/08 09:42:20;;;;;;;20.33;14.25;;;3.40;99.90;;;;;;5021831;28;20041;-63
2021/12/08 09:44:57;;;;;;;22.52;14.35;;;3.60;99.90;;;;;;5022285;28;20025;-64
2021/12/08 09:47:29;;;;;;;19.88;14.18;;;3.40;99.90;;;;;;5014180;28;20061;-63
2021/12/08 09:49:56;;;;;;;18.60;13.50;;;3.30;99.90;;;;;;5014114;28;20026;-64
2021/12/08 09:52:22;;;;;;;20.15;14.10;;;3.60;99.90;;;;;;5012947;28;20065;-64
2021/12/08 09:54:48;;;;;;;22.80;15.15;;;3.30;99.90;;;;;;5013445;28;20025;-64
2021/12/08 09:57:14;;;;;;;21.95;14.98;;;3.50;99.90;;;;;;5012836;28;20026;-64
2021/12/08 09:59:46;;;;;;;22.20;15.70;;;4.00;99.90;;;;;;5010968;28;20100;-65
2021/12/08 10:02:17;;;;;;;23.05;15.35;;;3.10;99.90;;;;;;5013922;28;20369;-64
2021/12/08 10:04:43;;;;;;;21.40;15.30;;;3.70;99.90;;;;;;5013047;28;20415;-65
2021/12/08 10:07:10;;;;;;;25.27;16.13;;;2.90;99.90;;;;;;5013717;28;20088;-65
2021/12/08 10:09:36;;;;;;;20.95;16.05;;;3.50;99.90;;;;;;5014168;28;20076;-65
2021/12/08 10:12:03;;;;;;;22.60;14.82;;;3.40;99.90;;;;;;5012755;28;20029;-64
2021/12/08 10:14:29;;;;;;;22.42;16.35;;;3.20;99.90;;;;;;5013128;28;20112;-64
2021/12/08 10:16:55;;;;;;;20.15;14.85;;;2.80;99.90;;;;;;5014450;28;20116;-64
2021/12/08 10:19:22;;;;;;;19.75;15.20;;;3.30;99.90;;;;;;5005713;28;20105;-65
2021/12/08 10:21:48;;;;;;;25.17;15.80;;;3.60;99.90;;;;;;5000307;28;20112;-64
2021/12/08 10:24:27;;;;;;;20.33;16.55;;;3.40;99.90;;;;;;4998101;28;20061;-65
2021/12/08 10:27:04;;;;;;;23.38;16.75;;;4.30;99.90;;;;;;5013454;28;20025;-64
2021/12/08 10:29:31;;;;;;;24.98;16.58;;;3.30;99.90;;;;;;5013508;28;20025;-65
2021/12/08 10:31:59;;;;;;;26.65;17.70;;;3.60;99.90;;;;;;5012547;28;20038;-64
2021/12/08 10:34:34;;;;;;;21.55;16.42;;;3.50;99.90;;;;;;5012643;28;20037;-64
2021/12/08 10:37:01;;;;;;;24.10;16.13;;;4.00;99.90;;;;;;5010491;28;20022;-65
2021/12/08 10:39:42;;;;;;;21.77;15.95;;;3.90;99.90;;;;;;5011761;28;20049;-64
2021/12/08 10:42:23;;;;;;;21.60;16.65;;;4.20;99.90;;;;;;5021867;28;20035;-65
2021/12/08 10:45:01;;;;;;;21.05;15.57;;;3.60;99.90;;;;;;5008433;28;20031;-63
2021/12/08 10:47:31;;;;;;;25.65;16.27;;;3.70;99.90;;;;;;4993680;28;20037;-65
2021/12/08 10:55:57;;;;;;;26.85;17.80;;;4.00;99.90;;;;;;5003392;28;20030;-64
2021/12/08 10:58:26;;;;;;;25.60;18.27;;;3.60;99.90;;;;;;5006143;28;20396;-64
2021/12/08 11:00:55;;;;;;;24.35;16.98;;;4.00;99.90;;;;;;5012237;28;20404;-65
2021/12/08 11:03:21;;;;;;;26.15;17.48;;;4.40;99.90;;;;;;5011747;28;20022;-64
2021/12/08 11:05:50;;;;;;;27.65;17.58;;;4.00;99.90;;;;;;5012045;28;20467;-65
2021/12/08 11:08:18;;;;;;;25.33;17.60;;;4.80;99.90;;;;;;5012824;28;20540;-65
2021/12/08 11:10:55;;;;;;;27.10;18.15;;;4.80;99.90;;;;;;5004090;28;20053;-64
2021/12/08 11:13:24;;;;;;;23.90;17.73;;;4.10;99.90;;;;;;4992718;28;20030;-64
2021/12/08 11:16:21;;;;;;;24.38;16.23;;;4.30;99.90;;;;;;4992167;28;20113;-64
2021/12/08 11:18:49;;;;;;;29.55;18.27;;;4.20;99.90;;;;;;5002654;28;20088;-64
2021/12/08 11:21:37;;;;;;;24.58;16.40;;;4.40;99.90;;;;;;5012534;28;20030;-63
2021/12/08 11:24:10;;;;;;;24.80;16.60;;;3.70;99.90;;;;;;5008120;28;20097;-62
2021/12/08 11:26:40;;;;;;;20.05;15.10;;;3.80;99.90;;;;;;5011541;28;20430;-64
2021/12/08 11:29:23;;;;;;;22.40;15.68;;;4.40;99.90;;;;;;5011888;28;20263;-65
2021/12/08 11:31:51;;;;;;;20.50;14.15;;;5.00;99.90;;;;;;5012748;28;20030;-65
2021/12/08 11:34:41;;;;;;;17.83;13.70;;;3.90;99.90;;;;;;5011664;28;20022;-64
2021/12/08 11:37:13;;;;;;;19.63;14.55;;;4.50;99.90;;;;;;5011239;28;20026;-65
2021/12/08 11:39:42;;;;;;;19.27;14.27;;;4.40;99.90;;;;;;5010997;28;20037;-64
2021/12/08 11:42:13;;;;;;;48.08;24.52;;;4.10;99.90;;;;;;5020795;28;20036;-68
2021/12/08 11:44:43;;;;;;;21.05;14.90;;;4.30;99.90;;;;;;4991899;28;20023;-67
2021/12/08 11:47:16;;;;;;;20.98;15.43;;;;;;;;;;4991706;28;20033;-66
2021/12/08 11:49:49;;;;;;;22.92;17.27;;;4.00;99.90;;;;;;4997255;28;20026;-68
2021/12/08 11:52:20;;;;;;;36.58;20.67;;;4.00;99.90;;;;;;5010939;28;20033;-69
2021/12/08 11:54:56;;;;;;;27.45;17.77;;;4.20;99.90;;;;;;5009688;28;20392;-68
2021/12/08 11:57:30;;;;;;;29.60;18.45;;;4.60;99.90;;;;;;5010954;28;20053;-68
2021/12/08 12:00:14;;;;;;;26.50;18.40;;;3.80;99.90;;;;;;5012436;28;20030;-70
2021/12/08 12:03:10;;;;;;;29.17;19.15;;;3.30;99.90;;;;;;5008093;28;20022;-69
2021/12/08 12:05:37;;;;;;;24.60;18.15;;;3.30;99.90;;;;;;5010064;28;20026;-69
2021/12/08 12:08:06;;;;;;;28.00;18.63;;;3.70;99.90;;;;;;5011907;28;20548;-69
2021/12/08 12:10:35;;;;;;;27.58;18.00;;;3.80;99.90;;;;;;5011309;28;20076;-68
2021/12/08 12:13:03;;;;;;;24.33;18.08;;;4.40;99.90;;;;;;5028860;28;20033;-70
2021/12/08 12:15:30;;;;;;;23.17;18.35;;;4.20;99.90;;;;;;5025816;28;20018;-68
2021/12/08 12:17:56;;;;;;;24.23;17.77;;;4.10;99.90;;;;;;5012193;28;20447;-69
2021/12/08 12:20:38;;;;;;;50.08;31.58;;;4.50;99.90;;;;;;5012124;28;20018;-69
2021/12/08 12:23:30;;;;;;;28.02;18.65;;;4.40;99.90;;;;;;5011675;28;20446;-69
2021/12/08 12:26:06;;;;;;;29.75;19.80;;;4.80;99.90;;;;;;5025983;28;20025;-67
2021/12/08 12:29:06;;;;;;;28.17;19.55;;;4.20;99.90;;;;;;5026792;28;20468;-65
2021/12/08 12:31:56;;;;;;;24.52;18.70;;;4.70;99.90;;;;;;4992428;28;20027;-63
2021/12/08 12:34:33;;;;;;;24.98;17.80;;;3.70;99.90;;;;;;4991886;28;20026;-66
2021/12/08 12:37:26;;;;;;;31.58;22.83;;;4.80;99.90;;;;;;5009753;28;20030;-66
2021/12/08 12:39:54;;;;;;;29.35;19.55;;;4.10;99.90;;;;;;5008717;28;20085;-65
2021/12/08 12:42:20;;;;;;;23.83;18.10;;;4.40;99.90;;;;;;5010602;28;20109;-65
2021/12/08 12:45:08;;;;;;;26.90;18.85;;;4.00;99.90;;;;;;5011171;28;20022;-65
2021/12/08 12:47:35;;;;;;;38.22;18.45;;;4.90;99.90;;;;;;5009633;28;20030;-66
2021/12/08 12:50:04;;;;;;;32.83;18.42;;;4.00;99.90;;;;;;5011768;28;20030;-65
2021/12/08 12:52:44;;;;;;;33.88;18.73;;;3.70;99.90;;;;;;5011959;28;20171;-66
2021/12/08 12:55:12;;;;;;;22.20;16.05;;;4.40;99.90;;;;;;5010521;28;20097;-66
2021/12/08 12:58:03;;;;;;;30.83;14.20;;;4.80;99.90;;;;;;5011564;28;20018;-65
2021/12/08 13:00:41;;;;;;;25.50;16.45;;;4.20;99.90;;;;;;5014648;28;20704;-66
2021/12/08 13:03:08;;;;;;;22.83;16.65;;;4.70;99.90;;;;;;5015545;28;20030;-65
2021/12/08 13:06:05;;;;;;;25.52;16.15;;;4.10;99.90;;;;;;5013893;28;20310;-66
2021/12/08 13:08:41;;;;;;;24.80;15.85;;;4.70;99.90;;;;;;4990467;28;20043;-65
2021/12/08 13:11:33;;;;;;;25.85;17.17;;;4.30;99.90;;;;;;4998666;28;20037;-64
2021/12/08 13:13:59;;;;;;;25.25;16.00;;;4.70;99.90;;;;;;5014534;28;20113;-64
2021/12/08 13:16:30;;;;;;;22.73;15.20;;;;;;;;;;5014323;28;20106;-66
2021/12/08 13:19:01;;;;;;;26.10;15.40;;;4.80;99.90;;;;;;5013571;28;20030;-67
2021/12/08 13:21:44;;;;;;;27.20;16.13;;;4.80;99.90;;;;;;5015249;28;20029;-65
2021/12/08 13:24:43;;;;;;;25.23;15.30;;;5.10;99.90;;;;;;5014866;28;20665;-65
2021/12/08 13:27:13;;;;;;;20.20;13.65;;;4.50;99.90;;;;;;5008568;28;20073;-65
2021/12/08 13:29:46;;;;;;;26.42;16.23;;;3.80;99.90;;;;;;5015905;28;20076;-66
2021/12/08 13:32:16;;;;;;;22.67;15.52;;;4.70;99.90;;;;;;5008017;28;20147;-63
2021/12/08 13:34:46;;;;;;;22.10;16.10;;;;;;;;;;4995046;28;20053;-66
2021/12/08 13:37:21;;;;;;;19.48;15.07;;;4.00;99.90;;;;;;5003201;28;20041;-70
2021/12/08 13:39:50;;;;;;;19.40;14.60;;;4.50;99.90;;;;;;5023014;28;20476;-69
2021/12/08 13:42:16;;;;;;;21.42;15.40;;;;;;;;;;5029068;23;20046;-72
2021/12/08 13:45:01;;;;;;;20.33;15.57;;;4.60;99.90;;;;;;5002751;28;20040;-72
2021/12/08 13:47:34;;;;;;;20.38;14.93;;;4.40;99.90;;;;;;4975480;28;20031;-73
2021/12/08 13:50:10;;;;;;;22.77;16.20;;;4.20;99.90;;;;;;4983332;28;20110;-72
2021/12/08 13:52:44;;;;;;;22.27;16.70;;;4.50;99.90;;;;;;4991924;28;20105;-73
2021/12/08 13:55:16;;;;;;;26.17;17.52;;;5.40;99.90;;;;;;4993263;28;20025;-73
2021/12/08 13:58:04;;;;;;;23.55;17.15;;;4.60;99.90;;;;;;5001589;28;20044;-72